createdAt,value
2022-10-07T00:01:58.484Z,13.48
2022-10-07T00:05:00.677Z,23.48
2022-10-07T00:08:02.807Z,18.37
2022-10-07T00:11:25.118Z,14.85
2022-10-07T00:14:27.279Z,21.65
2022-10-07T00:17:29.394Z,25.73
2022-10-07T00:20:31.651Z,27.35
2022-10-07T00:23:34.379Z,17.05
2022-10-07T00:26:37.282Z,16.15
2022-10-07T00:29:39.428Z,13.88
2022-10-07T00:32:41.566Z,12.98
2022-10-07T00:35:43.909Z,18.05
2022-10-07T00:38:53.445Z,11.98
2022-10-07T00:41:55.617Z,18.25
2022-10-07T00:44:57.788Z,22.60
2022-10-07T00:47:59.928Z,19.20
2022-10-07T00:51:02.703Z,13.10
2022-10-07T00:54:07.789Z,14.80
2022-10-07T00:57:10.382Z,24.87
2022-10-07T01:00:12.913Z,16.70
2022-10-07T01:03:15.302Z,18.65
2022-10-07T01:06:17.540Z,16.45
2022-10-07T01:09:21.512Z,22.00
2022-10-07T01:12:51.542Z,21.42
2022-10-07T01:16:08.051Z,20.60
2022-10-07T01:19:22.649Z,23.10
2022-10-07T01:22:34.306Z,18.85
2022-10-07T01:25:51.386Z,21.15
2022-10-07T01:28:57.704Z,17.83
2022-10-07T01:32:04.983Z,18.40
2022-10-07T01:35:21.785Z,17.42
2022-10-07T01:38:28.933Z,19.05
2022-10-07T01:41:31.648Z,16.00
2022-10-07T01:44:33.920Z,18.23
2022-10-07T01:47:36.184Z,15.10
2022-10-07T01:50:39.303Z,16.65
2022-10-07T01:53:44.501Z,22.30
2022-10-07T01:57:05.294Z,15.90
2022-10-07T02:00:12.108Z,14.43
2022-10-07T02:03:36.123Z,14.75
2022-10-07T02:06:52.116Z,15.45
2022-10-07T02:09:57.005Z,16.55
2022-10-07T02:13:19.333Z,15.07
2022-10-07T02:16:42.703Z,15.00
2022-10-07T02:19:49.377Z,14.55
2022-10-07T02:22:52.366Z,15.27
2022-10-07T02:25:55.600Z,13.85
2022-10-07T02:28:58.499Z,13.85
2022-10-07T02:32:02.801Z,13.30
2022-10-07T02:35:13.238Z,13.68
2022-10-07T02:38:17.845Z,13.52
2022-10-07T02:41:41.991Z,12.77
2022-10-07T02:44:49.716Z,16.60
2022-10-07T02:47:57.571Z,19.00
2022-10-07T02:51:03.077Z,17.30
2022-10-07T02:54:05.380Z,34.63
2022-10-07T02:57:08.447Z,25.15
2022-10-07T03:00:11.624Z,25.92
2022-10-07T03:03:13.997Z,19.35
2022-10-07T03:06:18.856Z,14.02
2022-10-07T03:09:21.111Z,16.48
2022-10-07T03:12:23.252Z,15.43
2022-10-07T03:15:25.986Z,12.40
2022-10-07T03:18:28.423Z,17.75
2022-10-07T03:21:33.038Z,15.43
2022-10-07T03:24:35.216Z,16.27
2022-10-07T03:27:38.534Z,13.35
2022-10-07T03:30:40.637Z,18.17
2022-10-07T03:33:43.190Z,15.50
2022-10-07T03:36:45.472Z,18.12
2022-10-07T03:39:47.677Z,12.32
2022-10-07T03:42:50.403Z,26.77
2022-10-07T03:45:52.594Z,18.23
2022-10-07T03:48:54.856Z,13.62
2022-10-07T03:51:57.247Z,15.25
2022-10-07T03:54:59.388Z,13.90
2022-10-07T03:58:01.533Z,18.75
2022-10-07T04:01:11.656Z,48.25
2022-10-07T04:04:13.949Z,29.58
2022-10-07T04:07:16.206Z,37.15
2022-10-07T04:10:19.313Z,20.42
2022-10-07T04:13:21.492Z,14.85
2022-10-07T04:16:23.707Z,12.35
2022-10-07T04:19:26.939Z,12.32
2022-10-07T04:22:29.116Z,19.02
2022-10-07T04:25:34.011Z,14.87
2022-10-07T04:28:36.784Z,11.57
2022-10-07T04:31:38.999Z,15.80
2022-10-07T04:34:41.197Z,15.07
2022-10-07T04:37:43.922Z,16.27
2022-10-07T04:40:48.458Z,17.23
2022-10-07T04:43:56.640Z,13.15
2022-10-07T04:47:00.191Z,12.90
2022-10-07T04:50:03.301Z,12.55
2022-10-07T04:53:09.761Z,12.50
2022-10-07T04:56:11.937Z,17.15
2022-10-07T04:59:14.077Z,17.17
2022-10-07T05:02:16.427Z,15.52
2022-10-07T05:05:18.737Z,20.35
2022-10-07T05:08:24.479Z,12.00
2022-10-07T05:11:26.634Z,14.65
2022-10-07T05:14:28.765Z,13.15
2022-10-07T05:17:30.919Z,16.35
2022-10-07T05:20:35.330Z,26.62
2022-10-07T05:23:37.554Z,19.87
2022-10-07T05:26:39.823Z,12.45
2022-10-07T05:29:41.964Z,12.23
2022-10-07T05:32:44.160Z,12.13
2022-10-07T05:35:46.576Z,13.50
2022-10-07T05:38:48.755Z,9.93
2022-10-07T05:41:50.959Z,11.32
2022-10-07T05:44:53.162Z,10.75
2022-10-07T05:47:55.326Z,15.77
2022-10-07T05:50:58.441Z,13.32
2022-10-07T05:54:00.763Z,9.38
2022-10-07T05:57:03.161Z,12.57
2022-10-07T06:00:06.314Z,14.35
2022-10-07T06:03:08.901Z,18.25
2022-10-07T06:06:11.194Z,13.98
2022-10-07T06:09:32.031Z,16.65
2022-10-07T06:12:53.045Z,15.02
2022-10-07T06:16:01.210Z,18.25
2022-10-07T06:19:03.783Z,18.10
2022-10-07T06:22:05.912Z,15.68
2022-10-07T06:25:08.639Z,43.10
2022-10-07T06:28:10.807Z,65.62
2022-10-07T06:31:14.669Z,47.88
2022-10-07T06:34:17.357Z,38.22
2022-10-07T06:37:20.631Z,30.40
2022-10-07T06:40:22.801Z,23.58
2022-10-07T06:43:29.052Z,21.30
2022-10-07T06:46:31.329Z,21.30
2022-10-07T06:49:33.514Z,23.20
2022-10-07T06:52:38.829Z,25.23
2022-10-07T06:55:43.413Z,18.77
2022-10-07T06:58:45.626Z,16.42
2022-10-07T07:01:47.847Z,22.20
2022-10-07T07:04:52.981Z,26.80
2022-10-07T07:07:58.832Z,26.98
2022-10-07T07:11:30.116Z,19.10
2022-10-07T07:14:34.884Z,23.05
2022-10-07T07:17:37.048Z,32.42
2022-10-07T07:20:40.050Z,11.95
2022-10-07T07:23:42.214Z,21.40
2022-10-07T07:26:44.379Z,17.77
2022-10-07T07:29:46.547Z,15.45
2022-10-07T07:32:49.293Z,11.82
2022-10-07T07:35:51.508Z,11.10
2022-10-07T07:38:59.962Z,13.70
2022-10-07T07:42:02.135Z,9.48
2022-10-07T07:45:04.636Z,10.23
2022-10-07T07:48:06.819Z,8.02
2022-10-07T07:51:09.055Z,12.52
2022-10-07T07:54:12.728Z,6.10
2022-10-07T07:57:15.391Z,7.82
2022-10-07T08:00:18.468Z,12.68
2022-10-07T08:03:20.615Z,10.27
2022-10-07T08:06:22.862Z,9.15
2022-10-07T08:09:25.067Z,5.75
2022-10-07T08:12:27.251Z,4.57
2022-10-07T08:15:29.541Z,5.32
2022-10-07T08:18:32.315Z,4.85
2022-10-07T08:21:34.479Z,5.95
2022-10-07T08:24:36.893Z,9.27
2022-10-07T08:27:39.077Z,4.53
2022-10-07T08:30:41.290Z,4.25
2022-10-07T08:33:45.106Z,4.12
2022-10-07T08:36:49.173Z,5.03
2022-10-07T08:39:51.344Z,3.37
2022-10-07T08:42:54.664Z,4.03
2022-10-07T08:46:01.911Z,4.70
2022-10-07T08:49:15.775Z,3.05
2022-10-07T08:52:21.173Z,3.10
2022-10-07T08:55:46.797Z,3.05
2022-10-07T08:59:23.007Z,5.22
2022-10-07T09:02:45.455Z,2.80
2022-10-07T09:05:49.604Z,3.40
2022-10-07T09:08:58.424Z,2.67
2022-10-07T09:12:03.570Z,2.75
2022-10-07T09:15:07.274Z,2.90
2022-10-07T09:18:50.974Z,2.30
2022-10-07T09:21:56.086Z,4.40
2022-10-07T09:25:23.047Z,2.65
2022-10-07T09:28:30.712Z,2.15
2022-10-07T09:31:33.553Z,3.08
2022-10-07T09:34:35.769Z,3.03
2022-10-07T09:37:56.011Z,4.10
2022-10-07T09:41:17.005Z,3.72
2022-10-07T09:44:27.255Z,6.40
2022-10-07T09:47:37.169Z,2.17
2022-10-07T09:50:41.559Z,2.92
2022-10-07T09:53:58.941Z,3.15
2022-10-07T09:57:04.073Z,2.87
2022-10-07T10:00:12.211Z,3.55
2022-10-07T10:03:17.310Z,3.17
2022-10-07T10:06:21.909Z,5.40
2022-10-07T10:09:25.698Z,3.67
2022-10-07T10:12:28.017Z,3.72
2022-10-07T10:15:36.252Z,3.37
2022-10-07T10:18:40.323Z,3.97
2022-10-07T10:21:42.525Z,3.08
2022-10-07T10:25:03.253Z,3.87
2022-10-07T10:28:11.183Z,3.83
2022-10-07T10:31:29.279Z,2.15
2022-10-07T10:34:56.160Z,4.90
2022-10-07T10:38:13.370Z,2.42
2022-10-07T10:41:48.554Z,3.35
2022-10-07T10:45:09.039Z,2.80
2022-10-07T10:48:32.586Z,3.78
2022-10-07T10:51:58.116Z,3.30
2022-10-07T10:55:48.133Z,3.35
2022-10-07T10:59:19.481Z,18.02
2022-10-07T11:02:49.161Z,4.15
2022-10-07T11:05:53.000Z,3.20
2022-10-07T11:08:57.192Z,2.30
2022-10-07T11:12:03.090Z,2.80
2022-10-07T11:15:20.091Z,2.75
2022-10-07T11:19:08.394Z,2.85
2022-10-07T11:22:16.347Z,3.03
2022-10-07T11:25:28.367Z,2.10
2022-10-07T11:28:34.844Z,3.85
2022-10-07T11:31:40.936Z,3.80
2022-10-07T11:34:54.601Z,6.45
2022-10-07T11:38:13.896Z,2.75
2022-10-07T11:41:28.326Z,3.17
2022-10-07T11:44:36.066Z,3.53
2022-10-07T11:47:42.066Z,5.37
2022-10-07T11:50:50.847Z,3.15
2022-10-07T11:53:54.501Z,3.65
2022-10-07T11:57:00.538Z,3.50
2022-10-07T12:00:08.217Z,4.35
2022-10-07T12:03:36.491Z,4.55
2022-10-07T12:06:38.894Z,3.80
2022-10-07T12:10:03.432Z,4.03
2022-10-07T12:13:09.267Z,2.28
2022-10-07T12:16:34.522Z,2.65
2022-10-07T12:19:36.714Z,4.60
2022-10-07T12:22:39.143Z,4.37
2022-10-07T12:25:51.132Z,2.90
2022-10-07T12:28:53.685Z,8.23
2022-10-07T12:31:56.145Z,5.93
2022-10-07T12:35:30.071Z,2.33
2022-10-07T12:38:32.424Z,6.15
2022-10-07T12:41:39.664Z,3.55
2022-10-07T12:44:51.304Z,4.45
2022-10-07T12:47:56.287Z,3.30
2022-10-07T12:50:59.039Z,5.07
2022-10-07T12:54:06.808Z,4.37
2022-10-07T12:57:13.999Z,3.47
2022-10-07T13:00:24.606Z,3.37
2022-10-07T13:03:40.675Z,5.20
2022-10-07T13:07:18.597Z,2.37
2022-10-07T13:10:42.629Z,2.53
2022-10-07T13:13:54.597Z,2.05
2022-10-07T13:17:14.264Z,2.55
2022-10-07T13:20:36.678Z,3.40
2022-10-07T13:23:38.871Z,3.12
2022-10-07T13:26:43.861Z,4.35
2022-10-07T13:29:46.825Z,2.72
2022-10-07T13:32:49.024Z,8.85
2022-10-07T13:35:51.978Z,4.28
2022-10-07T13:39:10.812Z,4.57
2022-10-07T13:42:17.991Z,3.10
2022-10-07T13:45:22.982Z,2.33
2022-10-07T13:48:28.526Z,4.20
2022-10-07T13:51:36.058Z,4.55
2022-10-07T13:54:38.232Z,3.33
2022-10-07T13:57:44.029Z,4.65
2022-10-07T14:00:47.527Z,2.85
2022-10-07T14:04:08.167Z,4.60
2022-10-07T14:07:13.050Z,11.43
2022-10-07T14:10:15.372Z,3.12
2022-10-07T14:13:17.778Z,3.20
2022-10-07T14:16:22.242Z,5.50
2022-10-07T14:19:33.880Z,4.80
2022-10-07T14:22:38.553Z,3.70
2022-10-07T14:25:53.039Z,2.97
2022-10-07T14:28:55.207Z,3.05
2022-10-07T14:32:36.467Z,3.30
2022-10-07T14:35:40.734Z,3.20
2022-10-07T14:38:44.462Z,5.90
2022-10-07T14:41:48.132Z,2.95
2022-10-07T14:44:50.788Z,3.87
2022-10-07T14:47:52.987Z,5.40
2022-10-07T14:50:55.145Z,4.85
2022-10-07T14:54:05.915Z,4.00
2022-10-07T14:57:08.566Z,3.75
2022-10-07T15:00:14.342Z,4.18
2022-10-07T15:03:16.451Z,2.45
2022-10-07T15:06:19.628Z,4.47
2022-10-07T15:09:22.245Z,2.72
2022-10-07T15:12:24.395Z,5.80
2022-10-07T15:15:26.584Z,4.35
2022-10-07T15:18:28.732Z,5.35
2022-10-07T15:21:31.885Z,3.97
2022-10-07T15:24:34.343Z,7.53
2022-10-07T15:27:37.746Z,2.78
2022-10-07T15:30:39.961Z,2.70
2022-10-07T15:33:42.704Z,3.25
2022-10-07T15:36:46.078Z,3.95
2022-10-07T15:39:48.394Z,5.22
2022-10-07T15:42:50.544Z,5.78
2022-10-07T15:45:53.005Z,4.55
2022-10-07T15:48:56.402Z,3.20
2022-10-07T15:51:58.714Z,5.35
2022-10-07T15:55:07.874Z,5.18
2022-10-07T15:58:10.482Z,4.03
2022-10-07T16:01:13.034Z,3.50
2022-10-07T16:04:15.339Z,7.57
2022-10-07T16:07:17.525Z,3.33
2022-10-07T16:10:20.003Z,6.72
2022-10-07T16:13:25.615Z,4.00
2022-10-07T16:16:28.718Z,3.47
2022-10-07T16:19:30.911Z,3.97
2022-10-07T16:22:33.132Z,5.12
2022-10-07T16:25:35.623Z,5.07
2022-10-07T16:29:16.230Z,3.87
2022-10-07T16:32:18.571Z,6.10
2022-10-07T16:35:20.802Z,4.82
2022-10-07T16:38:23.084Z,5.05
2022-10-07T16:41:26.463Z,5.28
2022-10-07T16:44:29.610Z,5.72
2022-10-07T16:47:31.820Z,6.18
2022-10-07T16:50:34.271Z,7.72
2022-10-07T16:53:36.484Z,3.97
2022-10-07T16:56:45.425Z,4.03
2022-10-07T16:59:47.628Z,7.03
2022-10-07T17:02:49.778Z,7.32
2022-10-07T17:05:58.374Z,8.35
2022-10-07T17:09:04.292Z,5.57
2022-10-07T17:12:09.167Z,5.97
2022-10-07T17:15:11.552Z,7.47
2022-10-07T17:18:17.751Z,5.37
2022-10-07T17:21:20.270Z,7.65
2022-10-07T17:24:24.165Z,5.70
2022-10-07T17:27:27.720Z,5.00
2022-10-07T17:30:30.793Z,5.55
2022-10-07T17:33:33.080Z,4.75
2022-10-07T17:36:35.535Z,5.87
2022-10-07T17:39:37.912Z,8.18
2022-10-07T17:42:40.111Z,7.60
2022-10-07T17:45:42.310Z,5.65
2022-10-07T17:48:45.658Z,5.70
2022-10-07T17:51:47.908Z,6.03
2022-10-07T17:54:53.234Z,7.85
2022-10-07T17:57:55.430Z,6.30
2022-10-07T18:00:57.975Z,5.07
2022-10-07T18:04:02.046Z,13.25
2022-10-07T18:07:04.430Z,5.15
2022-10-07T18:10:06.953Z,8.85
2022-10-07T18:13:28.661Z,5.30
2022-10-07T18:16:35.496Z,7.10
2022-10-07T18:19:39.747Z,6.43
2022-10-07T18:22:44.204Z,5.22
2022-10-07T18:25:47.015Z,6.22
2022-10-07T18:28:49.514Z,7.93
2022-10-07T18:31:51.730Z,7.68
2022-10-07T18:34:54.020Z,8.25
2022-10-07T18:37:56.176Z,6.45
2022-10-07T18:41:09.955Z,8.45
2022-10-07T18:44:12.225Z,11.48
2022-10-07T18:47:14.448Z,9.32
2022-10-07T18:50:16.830Z,8.90
2022-10-07T18:53:19.059Z,12.50
2022-10-07T18:56:23.447Z,6.82
2022-10-07T18:59:25.710Z,16.87
2022-10-07T19:02:27.910Z,7.05
2022-10-07T19:05:33.783Z,6.35
2022-10-07T19:08:36.575Z,8.63
2022-10-07T19:11:38.738Z,9.30
2022-10-07T19:14:40.945Z,9.15
2022-10-07T19:17:43.996Z,14.25
2022-10-07T19:20:55.998Z,6.65
2022-10-07T19:23:58.965Z,6.37
2022-10-07T19:27:03.170Z,5.47
2022-10-07T19:30:06.070Z,9.30
2022-10-07T19:33:11.036Z,7.72
2022-10-07T19:36:14.985Z,11.68
2022-10-07T19:39:20.305Z,6.68
2022-10-07T19:42:22.750Z,6.70
2022-10-07T19:45:25.154Z,7.45
2022-10-07T19:48:27.386Z,8.20
2022-10-07T19:51:31.245Z,11.80
2022-10-07T19:54:35.978Z,10.43
2022-10-07T19:57:38.351Z,11.63
2022-10-07T20:00:40.564Z,12.52
2022-10-07T20:03:42.755Z,12.13
2022-10-07T20:06:45.057Z,9.73
2022-10-07T20:09:47.409Z,9.43
2022-10-07T20:12:50.363Z,11.90
2022-10-07T20:15:53.019Z,10.05
2022-10-07T20:19:12.217Z,10.00
2022-10-07T20:22:14.407Z,15.52
2022-10-07T20:25:16.655Z,12.10
2022-10-07T20:28:18.899Z,15.13
2022-10-07T20:31:23.487Z,12.48
2022-10-07T20:34:26.389Z,15.38
2022-10-07T20:37:28.590Z,13.95
2022-10-07T20:40:49.460Z,11.85
2022-10-07T20:43:51.626Z,19.65
2022-10-07T20:46:53.798Z,14.98
2022-10-07T20:49:58.111Z,12.52
2022-10-07T20:53:00.958Z,13.30
2022-10-07T20:56:04.271Z,12.32
2022-10-07T20:59:06.762Z,15.10
2022-10-07T21:02:13.741Z,12.48
2022-10-07T21:05:15.949Z,12.05
2022-10-07T21:08:18.438Z,10.90
2022-10-07T21:11:20.641Z,9.18
2022-10-07T21:14:23.344Z,10.85
2022-10-07T21:17:25.597Z,11.95
2022-10-07T21:20:27.728Z,12.68
2022-10-07T21:23:31.004Z,13.98
2022-10-07T21:26:34.779Z,14.48
2022-10-07T21:29:40.749Z,13.93
2022-10-07T21:32:43.967Z,11.02
2022-10-07T21:35:46.354Z,10.18
2022-10-07T21:38:54.722Z,16.70
2022-10-07T21:41:58.152Z,11.55
2022-10-07T21:45:01.671Z,14.35
2022-10-07T21:48:03.888Z,11.30
2022-10-07T21:51:09.683Z,13.43
2022-10-07T21:54:14.194Z,13.25
2022-10-07T21:57:16.419Z,12.85
2022-10-07T22:00:19.001Z,13.62
2022-10-07T22:03:21.201Z,11.23
2022-10-07T22:06:44.093Z,8.48
2022-10-07T22:09:46.524Z,11.43
2022-10-07T22:12:49.067Z,11.70
2022-10-07T22:15:51.733Z,10.77
2022-10-07T22:18:54.685Z,16.00
2022-10-07T22:21:56.832Z,17.85
2022-10-07T22:24:59.359Z,10.98
2022-10-07T22:28:01.651Z,8.60
2022-10-07T22:31:06.461Z,10.77
2022-10-07T22:34:08.997Z,10.88
2022-10-07T22:37:11.179Z,9.45
2022-10-07T22:40:13.314Z,10.75
2022-10-07T22:43:15.518Z,8.50
2022-10-07T22:46:28.763Z,8.60
2022-10-07T22:49:31.012Z,13.68
2022-10-07T22:52:33.502Z,9.65
2022-10-07T22:55:37.238Z,10.85
2022-10-07T22:58:41.569Z,11.07
2022-10-07T23:01:43.860Z,10.80
2022-10-07T23:04:46.272Z,10.73
2022-10-07T23:07:50.549Z,7.90
2022-10-07T23:10:56.960Z,8.23
2022-10-07T23:13:59.919Z,12.27
2022-10-07T23:17:02.297Z,9.38
2022-10-07T23:20:04.896Z,8.75
2022-10-07T23:23:07.303Z,9.65
2022-10-07T23:26:18.922Z,9.10
2022-10-07T23:29:21.088Z,7.75
2022-10-07T23:32:23.250Z,11.00
2022-10-07T23:35:25.446Z,9.98
2022-10-07T23:38:28.627Z,11.55
2022-10-07T23:41:31.490Z,13.73
2022-10-07T23:44:34.304Z,10.75
2022-10-07T23:47:36.454Z,9.68
2022-10-07T23:50:43.671Z,9.02
2022-10-07T23:53:46.575Z,10.15
2022-10-07T23:56:49.381Z,7.95
2022-10-07T23:59:51.624Z,8.20
